createdAt,value
2023-04-02T00:00:10.973Z,98854.22
2023-04-02T00:02:48.151Z,98849.56
2023-04-02T00:05:16.732Z,98861.59
2023-04-02T00:07:49.377Z,98853.62
2023-04-02T00:10:27.167Z,98854.75
2023-04-02T00:13:09.470Z,98862.41
2023-04-02T00:15:40.501Z,98855.91
2023-04-02T00:18:18.697Z,98859.31
2023-04-02T00:20:53.108Z,98855.91
2023-04-02T00:23:22.441Z,98855.75
2023-04-02T00:25:51.013Z,98866.16
2023-04-02T00:28:22.982Z,98861.56
2023-04-02T00:30:58.522Z,98867.44
2023-04-02T00:33:28.931Z,98863.38
2023-04-02T00:35:57.531Z,98864.34
2023-04-02T00:38:32.987Z,98865.34
2023-04-02T00:41:06.365Z,98886.41
2023-04-02T00:43:37.415Z,98884.16
2023-04-02T00:46:14.272Z,98879.75
2023-04-02T00:48:46.006Z,98872.63
2023-04-02T00:51:18.120Z,98878.81
2023-04-02T00:53:49.246Z,98887.72
2023-04-02T00:56:29.345Z,98882.53
2023-04-02T00:58:58.612Z,98888.22
2023-04-02T01:01:35.780Z,98880.44
2023-04-02T01:04:25.812Z,98892.47
2023-04-02T01:06:54.516Z,98880.44
2023-04-02T01:09:44.988Z,98891.94
2023-04-02T01:12:19.252Z,98888.37
2023-04-02T01:15:08.451Z,98888.03
2023-04-02T01:18:18.157Z,98893.41
2023-04-02T01:21:11.951Z,98893.06
2023-04-02T01:24:01.513Z,98896.31
2023-04-02T01:26:58.116Z,98893.03
2023-04-02T01:29:51.308Z,98895.63
2023-04-02T01:32:22.765Z,98896.13
2023-04-02T01:34:52.599Z,98895.00
2023-04-02T01:37:46.870Z,98893.19
2023-04-02T01:40:41.898Z,98894.81
2023-04-02T01:43:33.278Z,98897.19
2023-04-02T01:46:23.520Z,98891.88
2023-04-02T01:48:54.096Z,98898.16
2023-04-02T01:51:31.851Z,98897.19
2023-04-02T01:54:06.317Z,98900.44
2023-04-02T01:56:35.674Z,98890.38
2023-04-02T01:59:06.032Z,98898.97
2023-04-02T02:01:42.732Z,98901.75
2023-04-02T02:04:16.208Z,98906.59
2023-04-02T02:06:45.336Z,98897.91
2023-04-02T02:09:32.785Z,98905.94
2023-04-02T02:12:03.061Z,98913.44
2023-04-02T02:14:32.027Z,98919.16
2023-04-02T02:17:02.518Z,98912.50
2023-04-02T02:19:42.664Z,98907.78
2023-04-02T02:22:31.297Z,98901.50
2023-04-02T02:25:03.016Z,98913.19
2023-04-02T02:27:42.895Z,98908.31
2023-04-02T02:30:15.654Z,98908.78
2023-04-02T02:32:53.964Z,98914.78
2023-04-02T02:35:29.287Z,98913.47
2023-04-02T02:38:24.459Z,98920.13
2023-04-02T02:40:58.528Z,98926.78
2023-04-02T02:43:27.267Z,98918.50
2023-04-02T02:45:57.770Z,98919.63
2023-04-02T02:48:37.403Z,98917.53
2023-04-02T02:51:21.940Z,98913.63
2023-04-02T02:53:54.612Z,98921.59
2023-04-02T02:56:24.894Z,98920.13
2023-04-02T02:58:53.815Z,98919.59
2023-04-02T03:01:23.059Z,98920.22
2023-04-02T03:03:54.937Z,98908.41
2023-04-02T03:06:24.591Z,98922.53
2023-04-02T03:09:21.624Z,98916.06
2023-04-02T03:12:00.059Z,98919.94
2023-04-02T03:14:44.233Z,98911.87
2023-04-02T03:17:21.118Z,98913.97
2023-04-02T03:19:54.701Z,98922.97
2023-04-02T03:22:42.924Z,98915.25
2023-04-02T03:25:20.009Z,98921.28
2023-04-02T03:27:54.053Z,98920.84
2023-04-02T03:30:43.050Z,98919.81
2023-04-02T03:33:22.219Z,98931.97
2023-04-02T03:36:01.641Z,98925.78
2023-04-02T03:38:44.887Z,98929.56
2023-04-02T03:41:31.771Z,98924.81
2023-04-02T03:44:07.812Z,98925.78
2023-04-02T03:46:48.122Z,98927.03
2023-04-02T03:49:42.531Z,98910.97
2023-04-02T03:52:12.401Z,98925.31
2023-04-02T03:54:53.658Z,98920.94
2023-04-02T03:57:33.583Z,98927.59
2023-04-02T04:00:05.636Z,98913.97
2023-04-02T04:02:52.832Z,98920.34
2023-04-02T04:05:35.812Z,98928.38
2023-04-02T04:08:16.363Z,98943.81
2023-04-02T04:10:45.696Z,98934.59
2023-04-02T04:13:18.725Z,98942.69
2023-04-02T04:16:00.501Z,98952.97
2023-04-02T04:18:47.812Z,98959.25
2023-04-02T04:21:50.962Z,98959.94
2023-04-02T04:24:27.395Z,98968.75
2023-04-02T04:27:09.548Z,98959.97
2023-04-02T04:30:03.990Z,98957.53
2023-04-02T04:32:50.527Z,98961.88
2023-04-02T04:35:35.609Z,98962.38
2023-04-02T04:38:32.678Z,98959.78
2023-04-02T04:41:15.043Z,98969.81
2023-04-02T04:43:52.175Z,98974.09
2023-04-02T04:46:33.609Z,98982.34
2023-04-02T04:49:26.305Z,98975.56
2023-04-02T04:52:22.755Z,98980.09
2023-04-02T04:54:51.843Z,98985.28
2023-04-02T04:57:38.365Z,98996.03
2023-04-02T05:00:37.608Z,98982.38
2023-04-02T05:03:31.866Z,98982.25
2023-04-02T05:06:13.175Z,98997.84
2023-04-02T05:08:48.044Z,98986.97
2023-04-02T05:11:32.372Z,98986.00
2023-04-02T05:14:16.673Z,98979.34
2023-04-02T05:17:05.330Z,98989.91
2023-04-02T05:19:56.992Z,98991.84
2023-04-02T05:22:42.742Z,98982.75
2023-04-02T05:25:18.754Z,98996.41
2023-04-02T05:28:05.794Z,98990.06
2023-04-02T05:30:46.698Z,99000.78
2023-04-02T05:33:27.951Z,98996.72
2023-04-02T05:36:01.538Z,98996.91
2023-04-02T05:38:35.545Z,98999.66
2023-04-02T05:41:16.925Z,99003.72
2023-04-02T05:43:48.640Z,99007.44
2023-04-02T05:46:21.505Z,99002.56
2023-04-02T05:48:57.168Z,99006.88
2023-04-02T05:51:38.821Z,99002.16
2023-04-02T05:54:21.240Z,98998.25
2023-04-02T05:56:55.382Z,99006.03
2023-04-02T05:59:29.918Z,99014.66
2023-04-02T06:02:03.556Z,99010.53
2023-04-02T06:04:51.484Z,99011.78
2023-04-02T06:07:28.379Z,99030.19
2023-04-02T06:10:17.912Z,99024.59
2023-04-02T06:13:07.630Z,99035.84
2023-04-02T06:15:38.610Z,99028.81
2023-04-02T06:18:24.143Z,99046.41
2023-04-02T06:20:53.781Z,99029.62
2023-04-02T06:23:22.234Z,99033.28
2023-04-02T06:25:59.305Z,99021.00
2023-04-02T06:28:48.917Z,99030.41
2023-04-02T06:31:35.059Z,99041.13
2023-04-02T06:34:07.608Z,99034.78
2023-04-02T06:36:36.492Z,99037.09
2023-04-02T06:39:09.242Z,99033.25
2023-04-02T06:41:37.729Z,99034.75
2023-04-02T06:44:16.412Z,99042.78
2023-04-02T06:46:57.942Z,99040.81
2023-04-02T06:49:40.227Z,99050.53
2023-04-02T06:52:24.244Z,99043.97
2023-04-02T06:54:53.517Z,99032.06
2023-04-02T06:57:22.759Z,99040.44
2023-04-02T06:59:51.933Z,99037.22
2023-04-02T07:02:37.533Z,99022.53
2023-04-02T07:05:09.423Z,99045.25
2023-04-02T07:07:38.664Z,99041.75
2023-04-02T07:10:09.313Z,99037.19
2023-04-02T07:12:38.466Z,99042.91
2023-04-02T07:15:07.296Z,99055.75
2023-04-02T07:17:35.762Z,99051.00
2023-04-02T07:20:04.437Z,99067.53
2023-04-02T07:22:32.914Z,99065.38
2023-04-02T07:25:01.634Z,99056.06
2023-04-02T07:27:30.793Z,99066.00
2023-04-02T07:29:59.088Z,99053.81
2023-04-02T07:32:27.249Z,99063.28
2023-04-02T07:34:55.857Z,99060.31
2023-04-02T07:37:24.021Z,99058.78
2023-04-02T07:39:52.292Z,99065.34
2023-04-02T07:42:21.152Z,99058.97
2023-04-02T07:44:49.981Z,99072.38
2023-04-02T07:47:18.012Z,99080.56
2023-04-02T07:49:47.055Z,99084.03
2023-04-02T07:52:15.813Z,99066.91
2023-04-02T07:54:44.007Z,99085.41
2023-04-02T07:57:12.388Z,99086.03
2023-04-02T07:59:41.743Z,99091.16
2023-04-02T08:02:27.971Z,99089.09
2023-04-02T08:04:56.904Z,99095.94
2023-04-02T08:07:25.038Z,99090.12
2023-04-02T08:09:53.162Z,99090.88
2023-04-02T08:12:22.214Z,99077.72
2023-04-02T08:14:50.431Z,99090.03
2023-04-02T08:17:18.753Z,99092.41
2023-04-02T08:19:54.769Z,99097.25
2023-04-02T08:22:23.560Z,99102.88
2023-04-02T08:24:52.808Z,99090.09
2023-04-02T08:27:21.288Z,99094.53
2023-04-02T08:29:49.648Z,99094.56
2023-04-02T08:32:18.772Z,99105.47
2023-04-02T08:34:46.800Z,99103.13
2023-04-02T08:37:15.221Z,99113.72
2023-04-02T08:39:43.949Z,99108.34
2023-04-02T08:42:27.358Z,99111.25
2023-04-02T08:45:25.487Z,99116.16
2023-04-02T08:48:10.101Z,99118.88
2023-04-02T08:50:41.762Z,99125.53
2023-04-02T08:53:22.961Z,99117.97
2023-04-02T08:56:06.110Z,99128.56
2023-04-02T08:58:54.441Z,99121.09
2023-04-02T09:01:45.065Z,99126.53
2023-04-02T09:04:24.822Z,99134.75
2023-04-02T09:06:56.355Z,99119.06
2023-04-02T09:09:25.489Z,99128.72
2023-04-02T09:12:01.340Z,99136.56
2023-04-02T09:14:52.690Z,99136.09
2023-04-02T09:17:24.980Z,99140.41
2023-04-02T09:20:03.417Z,99137.69
2023-04-02T09:22:34.126Z,99140.25
2023-04-02T09:25:05.683Z,99150.03
2023-04-02T09:27:36.551Z,99145.25
2023-04-02T09:30:32.494Z,99151.47
2023-04-02T09:33:07.965Z,99145.81
2023-04-02T09:35:51.458Z,99147.56
2023-04-02T09:38:28.391Z,99141.38
2023-04-02T09:41:07.566Z,99149.00
2023-04-02T09:43:38.470Z,99147.56
2023-04-02T09:46:22.717Z,99159.41
2023-04-02T09:48:56.038Z,99149.56
2023-04-02T09:51:26.821Z,99164.38
2023-04-02T09:54:04.362Z,99167.91
2023-04-02T09:56:35.493Z,99165.31
2023-04-02T09:59:13.298Z,99163.13
2023-04-02T10:01:47.830Z,99166.41
2023-04-02T10:04:45.135Z,99159.66
2023-04-02T10:07:34.597Z,99171.66
2023-04-02T10:10:16.699Z,99168.00
2023-04-02T10:12:50.325Z,99170.13
2023-04-02T10:15:27.637Z,99175.63
2023-04-02T10:18:25.872Z,99165.44
2023-04-02T10:20:56.438Z,99172.44
2023-04-02T10:23:29.522Z,99169.22
2023-04-02T10:26:53.073Z,99168.78
2023-04-02T10:29:27.212Z,99168.97
2023-04-02T10:32:02.459Z,99162.87
2023-04-02T10:34:45.769Z,99162.78
2023-04-02T10:37:27.586Z,99163.88
2023-04-02T10:40:25.703Z,99165.97
2023-04-02T10:43:13.293Z,99166.53
2023-04-02T10:45:49.394Z,99170.00
2023-04-02T10:48:33.365Z,99164.72
2023-04-02T10:51:07.419Z,99164.94
2023-04-02T10:54:01.576Z,99159.28
2023-04-02T10:56:44.098Z,99156.72
2023-04-02T10:59:28.073Z,99141.16
2023-04-02T11:01:58.275Z,99148.66
2023-04-02T11:04:41.963Z,99160.56
2023-04-02T11:07:22.695Z,99155.87
2023-04-02T11:09:56.428Z,99161.91
2023-04-02T11:12:44.606Z,99144.34
2023-04-02T11:15:20.536Z,99143.22
2023-04-02T11:17:49.109Z,99147.53
2023-04-02T11:20:45.916Z,99148.91
2023-04-02T11:23:20.970Z,99149.69
2023-04-02T11:25:49.938Z,99145.50
2023-04-02T11:28:31.723Z,99136.47
2023-04-02T11:31:00.987Z,99147.97
2023-04-02T11:33:39.911Z,99147.09
2023-04-02T11:36:48.297Z,99144.06
2023-04-02T11:39:34.809Z,99140.59
2023-04-02T11:42:24.966Z,99137.66
2023-04-02T11:44:54.728Z,99127.72
2023-04-02T11:47:25.196Z,99143.12
2023-04-02T11:50:01.470Z,99139.09
2023-04-02T11:52:52.978Z,99135.44
2023-04-02T11:55:32.805Z,99134.81
2023-04-02T11:58:22.890Z,99139.75
2023-04-02T12:01:08.081Z,99136.72
2023-04-02T12:03:51.599Z,99151.34
2023-04-02T12:06:39.911Z,99147.47
2023-04-02T12:09:38.104Z,99149.56
2023-04-02T12:12:24.947Z,99155.19
2023-04-02T12:14:58.313Z,99142.47
2023-04-02T12:17:31.322Z,99143.66
2023-04-02T12:20:08.459Z,99140.97
2023-04-02T12:22:41.382Z,99137.13
2023-04-02T12:25:29.455Z,99137.44
2023-04-02T12:28:18.777Z,99137.47
2023-04-02T12:30:48.951Z,99133.94
2023-04-02T12:33:20.490Z,99127.25
2023-04-02T12:36:00.156Z,99131.97
2023-04-02T12:38:31.275Z,99125.97
2023-04-02T12:41:03.770Z,99117.41
2023-04-02T12:43:38.142Z,99117.06
2023-04-02T12:46:09.058Z,99117.66
2023-04-02T12:48:39.405Z,99115.22
2023-04-02T12:51:07.997Z,99110.59
2023-04-02T12:53:41.407Z,99109.56
2023-04-02T12:56:21.432Z,99112.19
2023-04-02T12:59:00.596Z,99102.91
2023-04-02T13:01:31.763Z,99103.59
2023-04-02T13:04:14.962Z,99110.03
2023-04-02T13:06:52.226Z,99104.16
2023-04-02T13:09:47.013Z,99104.31
2023-04-02T13:12:40.734Z,99106.81
2023-04-02T13:15:25.847Z,99105.53
2023-04-02T13:18:18.755Z,99100.72
2023-04-02T13:20:59.365Z,99106.78
2023-04-02T13:23:30.954Z,99109.59
2023-04-02T13:26:02.307Z,99106.81
2023-04-02T13:28:30.996Z,99099.72
2023-04-02T13:30:59.103Z,99103.78
2023-04-02T13:33:27.661Z,99109.22
2023-04-02T13:35:56.534Z,99113.06
2023-04-02T13:38:24.687Z,99112.06
2023-04-02T13:40:53.252Z,99113.06
2023-04-02T13:43:21.860Z,99109.66
2023-04-02T13:45:54.271Z,99110.44
2023-04-02T13:48:27.045Z,99103.78
2023-04-02T13:50:55.529Z,99124.00
2023-04-02T13:53:33.666Z,99106.19
2023-04-02T13:56:02.019Z,99111.66
2023-04-02T13:58:30.623Z,99104.41
2023-04-02T14:00:59.304Z,99096.47
2023-04-02T14:03:28.165Z,99084.59
2023-04-02T14:06:28.105Z,99104.34
2023-04-02T14:09:10.333Z,99097.09
2023-04-02T14:12:01.444Z,99109.03
2023-04-02T14:15:12.519Z,99125.00
2023-04-02T14:18:05.692Z,99122.53
2023-04-02T14:21:12.558Z,99140.75
2023-04-02T14:24:07.160Z,99158.94
2023-04-02T14:27:23.198Z,99174.16
2023-04-02T14:30:12.123Z,99171.50
2023-04-02T14:33:17.799Z,99166.25
2023-04-02T14:36:05.812Z,99173.13
2023-04-02T14:38:49.975Z,99184.34
2023-04-02T14:41:39.740Z,99178.31
2023-04-02T14:44:10.729Z,99176.69
2023-04-02T14:46:39.577Z,99190.69
2023-04-02T14:49:35.043Z,99193.63
2023-04-02T14:52:06.235Z,99216.56
2023-04-02T14:54:50.192Z,99219.00
2023-04-02T14:57:39.200Z,99233.41
2023-04-02T15:00:33.727Z,99231.22
2023-04-02T15:03:18.560Z,99231.56
2023-04-02T15:05:54.451Z,99223.44
2023-04-02T15:08:27.252Z,99218.88
2023-04-02T15:11:06.532Z,99230.31
2023-04-02T15:13:51.489Z,99225.72
2023-04-02T15:16:23.473Z,99219.72
2023-04-02T15:18:55.348Z,99213.97
2023-04-02T15:21:57.538Z,99219.38
2023-04-02T15:24:40.260Z,99216.63
2023-04-02T15:27:56.440Z,99219.56
2023-04-02T15:30:35.329Z,99207.13
2023-04-02T15:33:23.798Z,99212.38
2023-04-02T15:35:59.914Z,99211.91
2023-04-02T15:38:36.351Z,99212.88
2023-04-02T15:41:10.903Z,99144.38
2023-04-02T15:43:56.907Z,99220.19
2023-04-02T15:46:38.139Z,99208.94
2023-04-02T15:49:31.909Z,99208.56
2023-04-02T15:52:11.491Z,99211.62
2023-04-02T15:54:58.840Z,99209.94
2023-04-02T15:57:54.768Z,99208.41
2023-04-02T16:00:33.557Z,99200.37
2023-04-02T16:03:34.913Z,99211.44
2023-04-02T16:06:34.301Z,99209.28
2023-04-02T16:09:16.154Z,99212.34
2023-04-02T16:11:44.880Z,99215.56
2023-04-02T16:14:34.020Z,99228.56
2023-04-02T16:17:23.888Z,99220.66
2023-04-02T16:20:18.701Z,99236.56
2023-04-02T16:23:00.588Z,99245.47
2023-04-02T16:25:44.280Z,99246.91
2023-04-02T16:28:28.534Z,99233.19
2023-04-02T16:31:09.664Z,99252.94
2023-04-02T16:34:00.037Z,99261.94
2023-04-02T16:37:09.705Z,99256.22
2023-04-02T16:39:59.546Z,99254.00
2023-04-02T16:42:43.469Z,99270.81
2023-04-02T16:45:31.407Z,99259.41
2023-04-02T16:48:04.891Z,99263.34
2023-04-02T16:50:39.172Z,99274.12
2023-04-02T16:53:24.811Z,99276.87
2023-04-02T16:56:21.127Z,99282.00
2023-04-02T16:59:14.701Z,99279.09
2023-04-02T17:01:54.877Z,99290.19
2023-04-02T17:04:28.126Z,99286.59
2023-04-02T17:07:26.378Z,99288.22
2023-04-02T17:10:14.388Z,99289.38
2023-04-02T17:12:51.318Z,99290.19
2023-04-02T17:15:32.203Z,99299.59
2023-04-02T17:18:01.933Z,99308.09
2023-04-02T17:20:31.158Z,99312.56
2023-04-02T17:22:59.808Z,99309.38
2023-04-02T17:25:35.370Z,99305.06
2023-04-02T17:28:12.135Z,99312.88
2023-04-02T17:30:45.022Z,99316.53
2023-04-02T17:33:18.271Z,99317.59
2023-04-02T17:36:22.337Z,99319.81
2023-04-02T17:39:14.335Z,99316.63
2023-04-02T17:41:45.646Z,99318.62
2023-04-02T17:44:42.961Z,99328.69
2023-04-02T17:47:31.570Z,99333.19
2023-04-02T17:50:35.359Z,99338.53
2023-04-02T17:53:25.900Z,99333.62
2023-04-02T17:56:32.878Z,99343.16
2023-04-02T17:59:38.402Z,99347.47
2023-04-02T18:02:35.776Z,99353.94
2023-04-02T18:05:47.978Z,99362.97
2023-04-02T18:08:53.856Z,99370.38
2023-04-02T18:11:55.312Z,99371.62
2023-04-02T18:15:03.097Z,99384.84
2023-04-02T18:17:37.546Z,99389.34
2023-04-02T18:20:20.128Z,99393.91
2023-04-02T18:23:33.627Z,99402.44
2023-04-02T18:26:11.451Z,99164.22
2023-04-02T18:29:17.313Z,99415.63
2023-04-02T18:31:46.424Z,99417.66
2023-04-02T18:34:43.224Z,99424.06
2023-04-02T18:37:32.051Z,99422.16
2023-04-02T18:40:39.486Z,99445.84
2023-04-02T18:43:20.702Z,99447.75
2023-04-02T18:46:15.839Z,99453.75
2023-04-02T18:48:47.276Z,99471.88
2023-04-02T18:51:24.389Z,99467.31
2023-04-02T18:54:15.825Z,99476.47
2023-04-02T18:56:45.021Z,99493.44
2023-04-02T18:59:51.967Z,99486.38
2023-04-02T19:02:21.138Z,99494.84
2023-04-02T19:05:02.157Z,99499.97
2023-04-02T19:07:36.180Z,99501.28
2023-04-02T19:10:34.407Z,99519.16
2023-04-02T19:13:12.539Z,99511.75
2023-04-02T19:16:11.255Z,99511.94
2023-04-02T19:18:55.208Z,99514.59
2023-04-02T19:21:42.372Z,99517.81
2023-04-02T19:24:29.906Z,99525.75
2023-04-02T19:27:12.644Z,99526.28
2023-04-02T19:30:14.742Z,99526.38
2023-04-02T19:33:14.128Z,99531.56
2023-04-02T19:35:55.550Z,99535.75
2023-04-02T19:38:53.439Z,99538.94
2023-04-02T19:42:03.705Z,99538.66
2023-04-02T19:44:32.056Z,99541.25
2023-04-02T19:47:00.881Z,99541.13
2023-04-02T19:49:33.939Z,99542.03
2023-04-02T19:52:03.313Z,99542.88
2023-04-02T19:54:31.934Z,99550.69
2023-04-02T19:57:00.731Z,99554.19
2023-04-02T19:59:30.336Z,99557.81
2023-04-02T20:02:02.253Z,99561.47
2023-04-02T20:04:31.184Z,99568.31
2023-04-02T20:06:59.573Z,99574.59
2023-04-02T20:09:29.702Z,99570.94
2023-04-02T20:11:58.546Z,99579.56
2023-04-02T20:14:26.989Z,99582.00
2023-04-02T20:16:55.398Z,99591.44
2023-04-02T20:19:24.057Z,99598.16
2023-04-02T20:21:52.388Z,99598.56
2023-04-02T20:24:20.769Z,99604.56
2023-04-02T20:26:49.641Z,99610.59
2023-04-02T20:29:18.143Z,99618.09
2023-04-02T20:31:46.554Z,99613.59
2023-04-02T20:34:15.313Z,99619.31
2023-04-02T20:36:44.457Z,99631.06
2023-04-02T20:39:19.227Z,99616.88
2023-04-02T20:41:48.879Z,99627.09
2023-04-02T20:44:17.455Z,99624.09
2023-04-02T20:46:45.577Z,99623.81
2023-04-02T20:49:14.214Z,99636.38
2023-04-02T20:51:43.031Z,99636.09
2023-04-02T20:54:11.422Z,99647.28
2023-04-02T20:56:40.049Z,99647.16
2023-04-02T20:59:08.315Z,99654.25
2023-04-02T21:01:37.661Z,99656.72
2023-04-02T21:04:06.251Z,99650.81
2023-04-02T21:06:37.497Z,99652.88
2023-04-02T21:09:08.887Z,99665.97
2023-04-02T21:11:37.438Z,99668.28
2023-04-02T21:14:06.543Z,99670.47
2023-04-02T21:16:35.844Z,99671.03
2023-04-02T21:19:07.477Z,99678.94
2023-04-02T21:21:38.181Z,99682.50
2023-04-02T21:24:08.306Z,99686.59
2023-04-02T21:26:39.326Z,99683.41
2023-04-02T21:29:07.848Z,99701.56
2023-04-02T21:31:38.185Z,99694.63
2023-04-02T21:34:08.561Z,99696.66
2023-04-02T21:36:41.952Z,99701.97
2023-04-02T21:39:15.815Z,99704.28
2023-04-02T21:41:46.866Z,99696.41
2023-04-02T21:44:17.983Z,99708.16
2023-04-02T21:46:46.385Z,99690.91
2023-04-02T21:49:17.623Z,99704.28
2023-04-02T21:51:47.568Z,99715.25
2023-04-02T21:54:16.194Z,99714.16
2023-04-02T21:56:46.112Z,99716.00
2023-04-02T21:59:16.897Z,99719.16
2023-04-02T22:01:48.582Z,99715.03
2023-04-02T22:04:25.711Z,99721.69
2023-04-02T22:06:54.275Z,99725.50
2023-04-02T22:09:25.193Z,99728.22
2023-04-02T22:11:59.430Z,99738.06
2023-04-02T22:14:28.585Z,99728.09
2023-04-02T22:16:58.764Z,99727.59
2023-04-02T22:19:28.001Z,99734.78
2023-04-02T22:21:56.779Z,99732.59
2023-04-02T22:24:25.306Z,99729.56
2023-04-02T22:26:54.312Z,99731.75
2023-04-02T22:29:22.633Z,99738.53
2023-04-02T22:31:50.925Z,99741.59
2023-04-02T22:34:19.711Z,99742.53
2023-04-02T22:36:48.123Z,99744.00
2023-04-02T22:39:17.127Z,99750.84
2023-04-02T22:41:46.352Z,99743.38
2023-04-02T22:44:15.885Z,99755.66
2023-04-02T22:46:44.059Z,99748.25
2023-04-02T22:49:15.993Z,99748.66
2023-04-02T22:51:45.617Z,99746.69
2023-04-02T22:54:14.056Z,99748.22
2023-04-02T22:56:42.368Z,99755.63
2023-04-02T22:59:10.906Z,99760.66
2023-04-02T23:01:39.237Z,99761.88
2023-04-02T23:04:07.669Z,99762.19
2023-04-02T23:06:35.982Z,99766.03
2023-04-02T23:09:04.626Z,99766.19
2023-04-02T23:11:32.878Z,99765.97
2023-04-02T23:14:01.400Z,99777.28
2023-04-02T23:16:30.013Z,99773.78
2023-04-02T23:18:58.996Z,99770.84
2023-04-02T23:21:27.367Z,99773.22
2023-04-02T23:23:56.370Z,99773.78
2023-04-02T23:26:29.454Z,99777.75
2023-04-02T23:29:00.669Z,99781.19
2023-04-02T23:31:29.831Z,99784.84
2023-04-02T23:33:58.691Z,99781.16
2023-04-02T23:36:35.946Z,99779.66
2023-04-02T23:39:10.645Z,99775.81
2023-04-02T23:41:40.939Z,99775.38
2023-04-02T23:44:10.407Z,99783.47
2023-04-02T23:46:38.706Z,99785.25
2023-04-02T23:49:08.111Z,99784.53
2023-04-02T23:51:36.419Z,99784.03
2023-04-02T23:54:04.816Z,99777.69
2023-04-02T23:56:33.054Z,99781.59
2023-04-02T23:59:01.550Z,99785.41
